Townsend, MT

6:37 PM MDT on May 27, 2017 (GMT -0600)
hills near Mt Baldy | | Change Station

Elev 4619 ft 46.37 °N, 111.35 °W | Updated 37 seconds ago

Partly Cloudy
Partly Cloudy
72.0 °F
Feels Like 76 °F
N
2.7
Wind Variable Wind from SW
Gusts 4.0 mph

Today
High -- | Low -- °F
--% Chance of Precip.
Yesterday
High -- | Low -- °F
Precip. -- in
Pressure 30.15 in
Visibility 10.0 miles
Clouds Scattered Clouds 10000 ft
Scattered Clouds 12000 ft
Heat Index 76 °F
Dew Point 37 °F
Humidity 28%
Rainfall 0.00 in
Snow Depth Not available.
5:40 AM 9:06 PM
Waxing Crescent, 7% visible
METAR KHLN 272353Z 27005KT 10SM SCT100 SCT120 22/02 A3014 RMK AO2 SLP210 T02220022 10250 20194 53001
Pressure 30.15 in
Visibility 10.0 miles
Clouds Scattered Clouds 10000 ft
Scattered Clouds 12000 ft
Heat Index 76 °F
Dew Point 37 °F
Humidity 28%
Rainfall 0.00 in
Snow Depth Not available.
5:40 AM 9:06 PM
Waxing Crescent, 7% visible
METAR KHLN 272353Z 27005KT 10SM SCT100 SCT120 22/02 A3014 RMK AO2 SLP210 T02220022 10250 20194 53001

Get Severe Weather Alerts

Thanks for signing up!

Be on the lookout for a verification email in your inbox.

You'll start receiving the daily forecast at 6 AM.

×

10-Day Weather Forecast

Almanac

Astronomy

May. 27, 2017 Rise Set
Actual Time
Civil Twilight
Nautical Twilight
Astronomical Twilight
Moon
Length of Visible Light
Length of Day
Tomorrow will be .
, % of the Moon is Illuminated

Today's Extremes

State Highs State Lows

Community

WunderPhotos

Category 6

Welcome to Category 6. This is the collective home for Weather Underground's featured writeups by Dr. Jeff Masters (right), Bob Henson (left), Chris Burt, and other regular contributors.

Nearby

Air Quality

  Air Quality AQ Index Pollutant
Not available.

Snow Depth

Station Depth Elevation

Earthquake Activity

City Distance Mag. Time & Date
Minimum magnitude displayed is 2.5.

Coastal Water Temperatures

Place Temperature

Stations

Nearby Weather Stations

Station Location Temp. Windchill Dew Point Humidity Wind Precip. Elev Updated Type
                   

Watches & Warnings

There are currently no watches in effect.